createdAt,value
2023-09-29T00:00:19.135Z,8.05
2023-09-29T00:02:48.754Z,6.88
2023-09-29T00:05:19.221Z,7.32
2023-09-29T00:07:46.602Z,8.70
2023-09-29T00:10:17.772Z,6.40
2023-09-29T00:12:45.618Z,6.90
2023-09-29T00:15:12.777Z,7.63
2023-09-29T00:17:39.965Z,7.65
2023-09-29T00:20:33.498Z,6.73
2023-09-29T00:23:02.557Z,8.25
2023-09-29T00:25:29.733Z,8.70
2023-09-29T00:27:58.250Z,7.88
2023-09-29T00:30:25.141Z,8.57
2023-09-29T00:32:53.971Z,6.73
2023-09-29T00:35:30.594Z,6.97
2023-09-29T00:38:02.451Z,7.32
2023-09-29T00:40:30.898Z,7.72
2023-09-29T00:42:59.112Z,6.07
2023-09-29T00:45:29.468Z,7.27
2023-09-29T00:47:59.996Z,8.25
2023-09-29T00:50:31.236Z,7.07
2023-09-29T00:53:01.131Z,7.57
2023-09-29T00:55:30.101Z,7.35
2023-09-29T00:58:00.837Z,6.73
2023-09-29T01:00:29.622Z,5.85
2023-09-29T01:03:08.028Z,8.20
2023-09-29T01:05:40.821Z,6.20
2023-09-29T01:08:14.078Z,6.72
2023-09-29T01:10:45.777Z,7.13
2023-09-29T01:13:14.164Z,7.22
2023-09-29T01:15:41.222Z,8.25
2023-09-29T01:18:13.280Z,6.75
2023-09-29T01:20:41.142Z,7.63
2023-09-29T01:23:09.758Z,7.03
2023-09-29T01:25:37.173Z,8.65
2023-09-29T01:28:14.967Z,7.85
2023-09-29T01:30:45.045Z,7.47
2023-09-29T01:33:12.150Z,8.10
2023-09-29T01:35:41.091Z,8.00
2023-09-29T01:38:07.959Z,6.30
2023-09-29T01:40:34.862Z,7.43
2023-09-29T01:43:02.459Z,8.15
2023-09-29T01:45:29.362Z,7.60
2023-09-29T01:47:56.723Z,7.73
2023-09-29T01:50:24.429Z,7.82
2023-09-29T01:52:52.539Z,10.35
2023-09-29T01:55:25.953Z,6.68
2023-09-29T01:57:57.284Z,8.00
2023-09-29T02:00:27.147Z,7.27
2023-09-29T02:02:55.893Z,8.68
2023-09-29T02:05:24.513Z,7.40
2023-09-29T02:07:51.653Z,6.70
2023-09-29T02:10:22.483Z,7.40
2023-09-29T02:13:00.284Z,8.60
2023-09-29T02:15:29.255Z,7.95
2023-09-29T02:17:56.267Z,7.57
2023-09-29T02:20:27.228Z,8.05
2023-09-29T02:22:56.451Z,6.40
2023-09-29T02:25:27.297Z,6.67
2023-09-29T02:27:58.532Z,7.72
2023-09-29T02:30:27.195Z,8.52
2023-09-29T02:32:54.079Z,7.00
2023-09-29T02:35:21.432Z,7.10
2023-09-29T02:37:48.652Z,7.33
2023-09-29T02:40:16.523Z,6.50
2023-09-29T02:42:45.802Z,6.88
2023-09-29T02:45:12.881Z,8.23
2023-09-29T02:47:43.774Z,7.60
2023-09-29T02:50:12.149Z,7.17
2023-09-29T02:52:39.830Z,7.30
2023-09-29T02:55:10.093Z,6.75
2023-09-29T02:57:36.837Z,7.40
2023-09-29T03:00:21.207Z,6.72
2023-09-29T03:02:49.218Z,9.27
2023-09-29T03:05:17.293Z,6.03
2023-09-29T03:07:44.596Z,7.65
2023-09-29T03:10:17.110Z,7.30
2023-09-29T03:12:45.583Z,6.40
2023-09-29T03:15:15.033Z,7.60
2023-09-29T03:17:42.703Z,7.30
2023-09-29T03:20:13.006Z,9.38
2023-09-29T03:22:41.868Z,6.55
2023-09-29T03:25:11.175Z,7.05
2023-09-29T03:27:41.172Z,6.93
2023-09-29T03:30:11.980Z,6.15
2023-09-29T03:32:38.750Z,6.93
2023-09-29T03:35:10.379Z,6.93
2023-09-29T03:37:38.953Z,6.75
2023-09-29T03:40:10.227Z,6.40
2023-09-29T03:42:38.686Z,7.88
2023-09-29T03:45:07.073Z,6.93
2023-09-29T03:47:35.270Z,6.40
2023-09-29T03:50:03.360Z,8.07
2023-09-29T03:52:33.713Z,6.93
2023-09-29T03:55:00.481Z,7.85
2023-09-29T03:57:27.113Z,8.57
2023-09-29T03:59:53.841Z,7.22
2023-09-29T04:02:22.068Z,7.65
2023-09-29T04:04:48.924Z,6.60
2023-09-29T04:07:17.014Z,7.35
2023-09-29T04:09:43.786Z,7.13
2023-09-29T04:12:10.454Z,6.75
2023-09-29T04:14:37.469Z,6.82
2023-09-29T04:17:06.126Z,7.03
2023-09-29T04:19:33.733Z,7.55
2023-09-29T04:22:01.279Z,6.85
2023-09-29T04:24:28.401Z,8.20
2023-09-29T04:26:55.380Z,7.50
2023-09-29T04:29:23.136Z,7.27
2023-09-29T04:31:49.787Z,7.30
2023-09-29T04:34:17.102Z,7.07
2023-09-29T04:36:43.963Z,6.38
2023-09-29T04:39:10.817Z,7.97
2023-09-29T04:41:38.955Z,9.77
2023-09-29T04:44:06.882Z,9.50
2023-09-29T04:46:35.737Z,8.75
2023-09-29T04:49:05.425Z,9.35
2023-09-29T04:51:38.016Z,9.38
2023-09-29T04:54:05.136Z,13.83
2023-09-29T04:56:32.935Z,6.65
2023-09-29T04:58:59.525Z,9.10
2023-09-29T05:01:27.573Z,7.38
2023-09-29T05:03:57.644Z,10.23
2023-09-29T05:06:25.582Z,8.00
2023-09-29T05:08:52.791Z,7.32
2023-09-29T05:11:24.087Z,8.32
2023-09-29T05:13:51.656Z,9.32
2023-09-29T05:16:18.981Z,9.98
2023-09-29T05:18:46.279Z,12.47
2023-09-29T05:21:13.252Z,15.15
2023-09-29T05:23:40.456Z,20.77
2023-09-29T05:26:08.926Z,23.23
2023-09-29T05:28:36.674Z,41.60
2023-09-29T05:31:06.526Z,45.57
2023-09-29T05:33:33.631Z,36.90
2023-09-29T05:36:00.852Z,34.83
2023-09-29T05:38:27.946Z,188.95
2023-09-29T05:40:54.653Z,68.80
2023-09-29T05:43:22.336Z,74.43
2023-09-29T05:45:49.460Z,86.18
2023-09-29T05:48:16.864Z,86.68
2023-09-29T05:50:43.880Z,75.30
2023-09-29T05:53:11.422Z,51.30
2023-09-29T05:55:39.515Z,43.90
2023-09-29T05:58:06.558Z,58.53
2023-09-29T06:00:33.345Z,38.58
2023-09-29T06:03:01.216Z,37.10
2023-09-29T06:05:30.229Z,32.47
2023-09-29T06:07:58.977Z,34.17
2023-09-29T06:10:26.505Z,26.17
2023-09-29T06:12:53.373Z,28.38
2023-09-29T06:15:20.597Z,30.67
2023-09-29T06:17:47.388Z,16.88
2023-09-29T06:20:14.244Z,32.33
2023-09-29T06:22:40.972Z,18.55
2023-09-29T06:25:07.944Z,25.30
2023-09-29T06:27:34.577Z,35.30
2023-09-29T06:30:01.282Z,22.38
2023-09-29T06:32:28.089Z,13.57
2023-09-29T06:34:54.921Z,13.27
2023-09-29T06:37:21.671Z,16.05
2023-09-29T06:39:48.281Z,10.07
2023-09-29T06:42:14.974Z,20.13
2023-09-29T06:44:41.698Z,12.93
2023-09-29T06:47:08.414Z,13.00
2023-09-29T06:49:35.061Z,12.95
2023-09-29T06:52:01.920Z,12.80
2023-09-29T06:54:28.751Z,13.13
2023-09-29T06:56:55.584Z,13.63
2023-09-29T06:59:22.687Z,14.25
2023-09-29T07:01:49.445Z,13.38
2023-09-29T07:04:16.315Z,10.73
2023-09-29T07:06:43.430Z,11.93
2023-09-29T07:09:11.821Z,12.47
2023-09-29T07:11:41.816Z,11.93
2023-09-29T07:14:08.437Z,13.93
2023-09-29T07:16:35.053Z,11.73
2023-09-29T07:19:05.532Z,10.95
2023-09-29T07:21:32.193Z,11.63
2023-09-29T07:23:59.036Z,11.75
2023-09-29T07:26:27.462Z,11.73
2023-09-29T07:28:56.156Z,11.63
2023-09-29T07:31:22.919Z,12.18
2023-09-29T07:33:49.842Z,12.47
2023-09-29T07:36:16.835Z,12.05
2023-09-29T07:38:43.519Z,12.52
2023-09-29T07:41:10.119Z,11.80
2023-09-29T07:43:36.748Z,11.30
2023-09-29T07:46:04.209Z,12.63
2023-09-29T07:48:30.940Z,14.27
2023-09-29T07:50:57.700Z,12.20
2023-09-29T07:53:24.334Z,11.35
2023-09-29T07:55:50.939Z,12.27
2023-09-29T07:58:17.540Z,10.30
2023-09-29T08:00:44.387Z,11.73
2023-09-29T08:03:11.147Z,11.02
2023-09-29T08:05:37.922Z,12.25
2023-09-29T08:08:06.132Z,12.40
2023-09-29T08:10:33.452Z,10.90
2023-09-29T08:13:00.080Z,11.73
2023-09-29T08:15:27.160Z,12.82
2023-09-29T08:17:53.847Z,12.30
2023-09-29T08:20:21.821Z,13.65
2023-09-29T08:22:50.535Z,12.87
2023-09-29T08:25:19.025Z,13.65
2023-09-29T08:27:45.918Z,12.85
2023-09-29T08:30:13.101Z,11.27
2023-09-29T08:32:40.926Z,11.32
2023-09-29T08:35:08.012Z,11.20
2023-09-29T08:37:34.634Z,10.07
2023-09-29T08:40:01.413Z,11.02
2023-09-29T08:42:39.598Z,10.38
2023-09-29T08:45:13.398Z,11.13
2023-09-29T08:47:42.205Z,10.80
2023-09-29T08:50:13.419Z,11.30
2023-09-29T08:52:46.290Z,13.85
2023-09-29T08:55:14.183Z,12.43
2023-09-29T08:57:43.473Z,10.65
2023-09-29T09:00:14.588Z,15.10
2023-09-29T09:02:45.462Z,15.25
2023-09-29T09:05:14.559Z,10.95
2023-09-29T09:07:42.410Z,9.05
2023-09-29T09:10:22.790Z,10.40
2023-09-29T09:12:57.283Z,9.43
2023-09-29T09:15:27.882Z,10.18
2023-09-29T09:17:56.102Z,9.80
2023-09-29T09:20:23.297Z,9.38
2023-09-29T09:23:01.178Z,11.45
2023-09-29T09:25:46.199Z,9.00
2023-09-29T09:28:21.383Z,9.73
2023-09-29T09:31:02.781Z,12.38
2023-09-29T09:33:30.036Z,8.20
2023-09-29T09:36:12.484Z,9.93
2023-09-29T09:38:39.805Z,10.33
2023-09-29T09:41:07.635Z,9.85
2023-09-29T09:43:39.101Z,9.75
2023-09-29T09:46:14.191Z,9.65
2023-09-29T09:49:08.999Z,10.05
2023-09-29T09:51:37.478Z,10.03
2023-09-29T09:54:05.450Z,12.10
2023-09-29T09:56:47.121Z,10.70
2023-09-29T09:59:15.306Z,10.32
2023-09-29T10:01:42.405Z,10.70
2023-09-29T10:04:13.752Z,10.33
2023-09-29T10:06:48.106Z,9.75
2023-09-29T10:09:14.908Z,9.68
2023-09-29T10:11:45.737Z,10.95
2023-09-29T10:14:12.445Z,10.95
2023-09-29T10:16:42.365Z,8.97
2023-09-29T10:19:12.262Z,10.45
2023-09-29T10:21:52.034Z,13.32
2023-09-29T10:24:27.242Z,10.40
2023-09-29T10:26:54.011Z,9.32
2023-09-29T10:29:25.683Z,8.33
2023-09-29T10:31:52.890Z,9.23
2023-09-29T10:34:22.564Z,9.52
2023-09-29T10:36:57.229Z,10.52
2023-09-29T10:39:28.618Z,8.80
2023-09-29T10:41:59.627Z,10.17
2023-09-29T10:44:30.271Z,8.45
2023-09-29T10:46:56.982Z,8.82
2023-09-29T10:49:33.653Z,7.85
2023-09-29T10:52:00.430Z,9.18
2023-09-29T10:54:27.754Z,8.40
2023-09-29T10:56:55.065Z,10.23
2023-09-29T10:59:21.890Z,8.48
2023-09-29T11:01:48.725Z,8.07
2023-09-29T11:04:15.594Z,8.30
2023-09-29T11:06:48.418Z,9.47
2023-09-29T11:09:17.830Z,8.57
2023-09-29T11:11:44.772Z,7.60
2023-09-29T11:14:11.510Z,7.40
2023-09-29T11:16:38.298Z,8.38
2023-09-29T11:19:12.366Z,7.27
2023-09-29T11:21:40.965Z,9.05
2023-09-29T11:24:20.242Z,8.02
2023-09-29T11:26:51.594Z,8.48
2023-09-29T11:29:26.217Z,9.07
2023-09-29T11:31:54.984Z,9.23
2023-09-29T11:34:23.282Z,8.00
2023-09-29T11:36:51.121Z,7.82
2023-09-29T11:39:20.377Z,6.53
2023-09-29T11:41:47.576Z,6.88
2023-09-29T11:44:15.568Z,9.17
2023-09-29T11:46:42.281Z,7.05
2023-09-29T11:49:08.936Z,10.23
2023-09-29T11:51:38.589Z,7.70
2023-09-29T11:54:06.121Z,8.23
2023-09-29T11:56:33.400Z,6.87
2023-09-29T11:59:00.422Z,7.68
2023-09-29T12:01:28.888Z,7.45
2023-09-29T12:03:57.075Z,8.05
2023-09-29T12:06:24.097Z,6.40
2023-09-29T12:08:50.919Z,6.57
2023-09-29T12:11:20.925Z,7.35
2023-09-29T12:13:49.292Z,5.32
2023-09-29T12:16:17.189Z,8.10
2023-09-29T12:18:44.624Z,7.00
2023-09-29T12:21:13.380Z,6.37
2023-09-29T12:23:40.673Z,6.85
2023-09-29T12:26:08.084Z,5.70
2023-09-29T12:28:36.925Z,8.82
2023-09-29T12:31:04.331Z,5.72
2023-09-29T12:33:31.483Z,6.43
2023-09-29T12:35:58.310Z,8.55
2023-09-29T12:38:24.990Z,6.75
2023-09-29T12:40:52.040Z,6.30
2023-09-29T12:43:18.995Z,7.45
2023-09-29T12:45:45.620Z,6.17
2023-09-29T12:48:12.436Z,6.85
2023-09-29T12:50:40.860Z,7.38
2023-09-29T12:53:07.903Z,6.90
2023-09-29T12:55:34.629Z,5.93
2023-09-29T12:58:08.106Z,6.10
2023-09-29T13:00:37.973Z,6.28
2023-09-29T13:03:08.844Z,6.18
2023-09-29T13:05:39.170Z,5.72
2023-09-29T13:08:06.727Z,6.63
2023-09-29T13:10:37.528Z,6.33
2023-09-29T13:13:07.006Z,6.95
2023-09-29T13:15:34.418Z,6.18
2023-09-29T13:18:01.339Z,7.75
2023-09-29T13:20:28.558Z,6.22
2023-09-29T13:22:56.058Z,6.37
2023-09-29T13:25:22.879Z,5.90
2023-09-29T13:27:49.833Z,6.43
2023-09-29T13:30:18.215Z,5.53
2023-09-29T13:32:45.534Z,6.68
2023-09-29T13:35:12.249Z,5.80
2023-09-29T13:37:39.237Z,6.95
2023-09-29T13:40:07.643Z,6.15
2023-09-29T13:42:36.603Z,7.50
2023-09-29T13:45:06.802Z,6.35
2023-09-29T13:47:34.598Z,7.23
2023-09-29T13:50:02.312Z,6.25
2023-09-29T13:52:29.917Z,6.00
2023-09-29T13:54:56.788Z,5.68
2023-09-29T13:57:24.620Z,6.78
2023-09-29T13:59:51.560Z,5.83
2023-09-29T14:02:18.638Z,6.95
2023-09-29T14:04:45.620Z,5.95
2023-09-29T14:07:12.524Z,6.82
2023-09-29T14:09:40.726Z,6.28
2023-09-29T14:12:10.235Z,6.47
2023-09-29T14:14:37.838Z,5.80
2023-09-29T14:17:06.277Z,7.72
2023-09-29T14:19:33.990Z,6.72
2023-09-29T14:22:00.744Z,6.30
2023-09-29T14:24:27.450Z,6.23
2023-09-29T14:26:54.292Z,6.78
2023-09-29T14:29:21.594Z,5.78
2023-09-29T14:31:48.735Z,6.68
2023-09-29T14:34:17.160Z,5.60
2023-09-29T14:36:44.543Z,6.73
2023-09-29T14:39:11.251Z,7.10
2023-09-29T14:41:41.720Z,8.27
2023-09-29T14:44:08.781Z,9.68
2023-09-29T14:46:35.502Z,6.32
2023-09-29T14:49:03.846Z,6.07
2023-09-29T14:51:33.387Z,8.27
2023-09-29T14:54:00.993Z,5.20
2023-09-29T14:56:27.579Z,5.53
2023-09-29T14:58:54.435Z,5.25
2023-09-29T15:01:21.339Z,5.37
2023-09-29T15:03:49.810Z,5.53
2023-09-29T15:06:16.975Z,7.68
2023-09-29T15:08:44.995Z,7.00
2023-09-29T15:11:17.934Z,5.88
2023-09-29T15:13:44.571Z,6.13
2023-09-29T15:16:18.164Z,5.40
2023-09-29T15:18:50.751Z,6.18
2023-09-29T15:21:18.132Z,39.10
2023-09-29T15:23:45.012Z,12.18
2023-09-29T15:26:13.271Z,6.70
2023-09-29T15:28:39.890Z,6.93
2023-09-29T15:31:07.578Z,7.68
2023-09-29T15:33:34.709Z,5.95
2023-09-29T15:36:02.552Z,6.63
2023-09-29T15:38:30.535Z,5.17
2023-09-29T15:40:57.192Z,6.97
2023-09-29T15:43:23.849Z,5.57
2023-09-29T15:45:51.114Z,5.20
2023-09-29T15:48:18.087Z,6.30
2023-09-29T15:50:45.270Z,7.00
2023-09-29T15:53:16.290Z,8.93
2023-09-29T15:55:44.136Z,7.90
2023-09-29T15:58:12.175Z,8.77
2023-09-29T16:00:39.483Z,6.80
2023-09-29T16:03:07.395Z,7.03
2023-09-29T16:05:35.268Z,6.10
2023-09-29T16:08:02.684Z,6.28
2023-09-29T16:10:30.113Z,6.97
2023-09-29T16:12:57.045Z,7.03
2023-09-29T16:15:25.326Z,5.70
2023-09-29T16:17:52.385Z,7.72
2023-09-29T16:20:19.472Z,7.13
2023-09-29T16:22:46.342Z,7.30
2023-09-29T16:25:13.338Z,7.22
2023-09-29T16:27:40.365Z,6.20
2023-09-29T16:30:08.092Z,5.70
2023-09-29T16:32:34.760Z,6.75
2023-09-29T16:35:02.419Z,5.82
2023-09-29T16:37:35.362Z,5.68
2023-09-29T16:40:14.771Z,6.77
2023-09-29T16:42:45.614Z,6.57
2023-09-29T16:45:15.037Z,7.25
2023-09-29T16:47:41.991Z,6.45
2023-09-29T16:50:09.128Z,7.15
2023-09-29T16:52:35.793Z,8.27
2023-09-29T16:55:02.385Z,6.95
2023-09-29T16:57:29.403Z,7.72
2023-09-29T16:59:57.164Z,7.32
2023-09-29T17:02:24.772Z,6.47
2023-09-29T17:04:51.652Z,9.33
2023-09-29T17:07:18.535Z,6.90
2023-09-29T17:09:45.420Z,6.68
2023-09-29T17:12:13.131Z,7.57
2023-09-29T17:14:41.250Z,6.07
2023-09-29T17:17:12.471Z,8.07
2023-09-29T17:19:39.464Z,6.78
2023-09-29T17:22:06.782Z,7.63
2023-09-29T17:24:36.217Z,12.15
2023-09-29T17:27:03.359Z,7.03
2023-09-29T17:29:33.365Z,11.30
2023-09-29T17:31:59.990Z,8.90
2023-09-29T17:34:26.741Z,14.70
2023-09-29T17:36:53.398Z,9.75
2023-09-29T17:39:20.343Z,9.60
2023-09-29T17:41:47.097Z,9.43
2023-09-29T17:44:15.086Z,8.93
2023-09-29T17:46:41.827Z,8.20
2023-09-29T17:49:08.677Z,10.23
2023-09-29T17:51:36.810Z,8.68
2023-09-29T17:54:04.167Z,9.17
2023-09-29T17:56:31.440Z,10.55
2023-09-29T17:59:01.189Z,8.20
2023-09-29T18:01:27.950Z,8.27
2023-09-29T18:03:55.828Z,9.05
2023-09-29T18:06:30.533Z,7.60
2023-09-29T18:08:57.511Z,9.25
2023-09-29T18:11:24.508Z,9.63
2023-09-29T18:13:51.232Z,8.25
2023-09-29T18:16:17.904Z,9.35
2023-09-29T18:18:44.603Z,10.07
2023-09-29T18:21:11.354Z,7.55
2023-09-29T18:23:38.454Z,9.20
2023-09-29T18:26:05.126Z,6.85
2023-09-29T18:28:36.057Z,7.75
2023-09-29T18:31:06.582Z,7.80
2023-09-29T18:33:33.404Z,7.97
2023-09-29T18:36:04.396Z,9.25
2023-09-29T18:38:31.286Z,8.32
2023-09-29T18:40:58.073Z,11.20
2023-09-29T18:43:24.729Z,8.87
2023-09-29T18:45:59.356Z,8.63
2023-09-29T18:48:26.425Z,7.25
2023-09-29T18:50:53.319Z,9.35
2023-09-29T18:53:20.288Z,8.35
2023-09-29T18:55:47.399Z,7.13
2023-09-29T18:58:14.035Z,7.43
2023-09-29T19:00:41.423Z,9.88
2023-09-29T19:03:08.300Z,8.98
2023-09-29T19:05:36.380Z,8.77
2023-09-29T19:08:03.011Z,7.80
2023-09-29T19:10:29.626Z,9.95
2023-09-29T19:12:56.196Z,10.05
2023-09-29T19:15:22.889Z,9.05
2023-09-29T19:17:50.163Z,10.93
2023-09-29T19:20:17.907Z,15.03
2023-09-29T19:22:45.091Z,12.13
2023-09-29T19:25:11.946Z,17.23
2023-09-29T19:27:38.737Z,15.30
2023-09-29T19:30:07.027Z,18.60
2023-09-29T19:32:34.017Z,16.87
2023-09-29T19:35:00.726Z,18.58
2023-09-29T19:37:27.771Z,19.17
2023-09-29T19:39:54.475Z,17.58
2023-09-29T19:42:22.725Z,19.13
2023-09-29T19:44:50.201Z,20.43
2023-09-29T19:47:16.966Z,20.63
2023-09-29T19:49:43.740Z,20.55
2023-09-29T19:52:11.136Z,21.20
2023-09-29T19:54:40.970Z,20.00
2023-09-29T19:57:08.951Z,21.77
2023-09-29T19:59:35.640Z,19.70
2023-09-29T20:02:04.190Z,19.10
2023-09-29T20:04:31.370Z,20.75
2023-09-29T20:06:59.971Z,18.98
2023-09-29T20:09:27.134Z,27.73
2023-09-29T20:11:54.624Z,21.58
2023-09-29T20:14:21.352Z,22.60
2023-09-29T20:16:48.224Z,19.75
2023-09-29T20:19:15.236Z,24.35
2023-09-29T20:21:41.953Z,22.03
2023-09-29T20:24:10.649Z,19.08
2023-09-29T20:26:38.526Z,20.83
2023-09-29T20:29:05.188Z,20.90
2023-09-29T20:31:32.141Z,20.75
2023-09-29T20:34:00.726Z,21.53
2023-09-29T20:36:29.981Z,20.95
2023-09-29T20:38:57.514Z,20.92
2023-09-29T20:41:24.139Z,23.77
2023-09-29T20:43:51.013Z,23.45
2023-09-29T20:46:18.231Z,24.07
2023-09-29T20:48:47.565Z,25.92
2023-09-29T20:51:14.938Z,23.10
2023-09-29T20:53:42.126Z,22.98
2023-09-29T20:56:09.114Z,24.80
2023-09-29T20:58:35.758Z,23.90
2023-09-29T21:01:02.665Z,24.70
2023-09-29T21:03:29.417Z,25.40
2023-09-29T21:05:56.162Z,25.27
2023-09-29T21:08:23.191Z,23.45
2023-09-29T21:10:49.820Z,24.47
2023-09-29T21:13:16.465Z,26.33
2023-09-29T21:15:43.361Z,26.23
2023-09-29T21:18:10.736Z,27.10
2023-09-29T21:20:38.923Z,24.55
2023-09-29T21:23:05.560Z,23.33
2023-09-29T21:25:32.254Z,26.95
2023-09-29T21:27:59.042Z,27.63
2023-09-29T21:30:28.037Z,25.27
2023-09-29T21:32:54.820Z,23.50
2023-09-29T21:35:21.499Z,24.93
2023-09-29T21:37:48.304Z,25.42
2023-09-29T21:40:15.228Z,25.52
2023-09-29T21:42:41.953Z,26.33
2023-09-29T21:45:09.915Z,28.00
2023-09-29T21:47:36.684Z,23.10
2023-09-29T21:50:03.569Z,25.08
2023-09-29T21:52:30.677Z,26.27
2023-09-29T21:54:57.330Z,25.67
2023-09-29T21:57:24.276Z,28.40
2023-09-29T21:59:51.184Z,28.20
2023-09-29T22:02:18.420Z,29.70
2023-09-29T22:04:47.396Z,28.77
2023-09-29T22:07:14.974Z,26.85
2023-09-29T22:09:41.804Z,25.70
2023-09-29T22:12:08.494Z,25.87
2023-09-29T22:14:36.359Z,26.55
2023-09-29T22:17:03.285Z,26.45
2023-09-29T22:19:30.199Z,27.45
2023-09-29T22:21:56.870Z,24.98
2023-09-29T22:24:23.566Z,25.03
2023-09-29T22:26:51.770Z,25.50
2023-09-29T22:29:18.988Z,25.65
2023-09-29T22:31:45.756Z,24.08
2023-09-29T22:34:12.945Z,26.10
2023-09-29T22:36:39.697Z,27.63
2023-09-29T22:39:08.546Z,27.38
2023-09-29T22:41:35.200Z,25.30
2023-09-29T22:44:02.630Z,26.02
2023-09-29T22:46:29.255Z,25.80
2023-09-29T22:48:56.420Z,25.87
2023-09-29T22:51:23.184Z,26.38
2023-09-29T22:53:50.047Z,26.77
2023-09-29T22:56:16.853Z,23.50
2023-09-29T22:58:43.547Z,29.95
2023-09-29T23:01:10.487Z,23.80
2023-09-29T23:03:37.339Z,25.25
2023-09-29T23:06:04.389Z,24.20
2023-09-29T23:08:32.897Z,24.70
2023-09-29T23:11:02.694Z,22.80
2023-09-29T23:13:29.306Z,21.97
2023-09-29T23:15:55.922Z,22.50
2023-09-29T23:18:22.759Z,23.80
2023-09-29T23:20:52.412Z,21.08
2023-09-29T23:23:20.243Z,21.38
2023-09-29T23:25:47.569Z,22.07
2023-09-29T23:28:14.335Z,20.80
2023-09-29T23:30:41.698Z,20.27
2023-09-29T23:33:08.340Z,20.15
2023-09-29T23:35:38.058Z,20.08
2023-09-29T23:38:05.585Z,20.33
2023-09-29T23:40:32.263Z,20.38
2023-09-29T23:42:59.054Z,22.02
2023-09-29T23:45:26.392Z,23.90
2023-09-29T23:47:53.276Z,20.08
2023-09-29T23:50:20.432Z,21.03
2023-09-29T23:52:47.312Z,20.70
2023-09-29T23:55:14.435Z,20.65
2023-09-29T23:57:41.127Z,20.48
